YMPH weather

Mount Elephant Airport
Victoria, Australia

Public forecast

Using degrees Celsius for public forecast. Weather courtesy of forecast.io.

METAR (pilot weather report)

Closest report is Avalon Airport, 62.2 nm (115.2 km) E. Retrieved 2019/04/25 12:00 UTC (7 minutes ago):

YMAV 251200Z AUTO 29017KT 9999 // NCD 15/08 Q1016 RF00.0/000.0

TAF (pilot weather forecast)

Forecast is more than 12 hours old.

Closest forecast is Avalon Airport, 62.2 nm (115.2 km) E. Retrieved 2019/04/24 00:00 UTC (2 days ago):

TAF YMAV 242331Z 2500/2524 30010KT 9999 FEW020 SCT045 FM250200 29015G25KT 9999 SCT045 FM250700 28013KT 9999 BKN040 FM251600 29014KT 9999 -SHRA SCT025 BKN040 FM251900 26014KT 9999 -SHRA SCT020 BKN035 FM252300 25016G28KT 9999 -SHRA SCT035 SCT050